Weather at Achmad Yani Airport

Public forecast

Using degrees Celsius for public forecast. Weather courtesy of forecast.io.

Closest aviation weather report (METAR) to Achmad Yani Airport

Closest report is Juanda International Airport, 145.9 nm (270.2 km) E.

2024/06/12 20:30 (retrieved 29 minutes ago)

WARR 122030Z 25004KT 5000 HZ FEW020 25/25 Q1011 NOSIG

Closest aviation forecast (TAF) to Achmad Yani Airport

Closest forecast is Juanda International Airport, 145.9 nm (270.2 km) E.

2024/06/12 18:06 (retrieved 3 hours ago)

TAF WARR 121700Z 1218/1318 22005KT 8000 FEW020 TEMPO 1220/1223 5000 HZ BECMG 1301/1303 09010KT